createdAt,value
2022-08-19T00:02:10.557Z,66.67
2022-08-19T00:04:37.953Z,67.45
2022-08-19T00:07:06.751Z,67.61
2022-08-19T00:09:35.052Z,67.48
2022-08-19T00:12:03.594Z,67.62
2022-08-19T00:14:33.872Z,67.93
2022-08-19T00:17:04.067Z,67.71
2022-08-19T00:19:31.306Z,68.38
2022-08-19T00:21:58.202Z,68.13
2022-08-19T00:24:25.830Z,68.45
2022-08-19T00:26:56.126Z,68.40
2022-08-19T00:29:24.120Z,68.85
2022-08-19T00:31:54.509Z,68.45
2022-08-19T00:34:22.810Z,68.82
2022-08-19T00:36:50.123Z,68.85
2022-08-19T00:39:18.243Z,68.82
2022-08-19T00:41:48.518Z,68.37
2022-08-19T00:44:26.909Z,68.35
2022-08-19T00:46:58.745Z,68.41
2022-08-19T00:49:31.126Z,68.96
2022-08-19T00:52:03.146Z,69.06
2022-08-19T00:54:32.468Z,68.78
2022-08-19T00:57:00.816Z,69.30
2022-08-19T00:59:56.104Z,69.59
2022-08-19T01:02:18.051Z,69.25
2022-08-19T01:04:44.931Z,69.76
2022-08-19T01:07:15.142Z,69.92
2022-08-19T01:09:45.017Z,70.00
2022-08-19T01:12:12.882Z,69.97
2022-08-19T01:14:41.065Z,70.16
2022-08-19T01:17:11.903Z,70.21
2022-08-19T01:19:43.700Z,70.42
2022-08-19T01:22:34.190Z,70.23
2022-08-19T01:25:02.179Z,70.58
2022-08-19T01:27:45.906Z,70.49
2022-08-19T01:30:16.515Z,70.67
2022-08-19T01:32:44.318Z,70.63
2022-08-19T01:35:13.653Z,70.30
2022-08-19T01:37:56.198Z,70.61
2022-08-19T01:40:26.148Z,70.91
2022-08-19T01:42:54.678Z,70.70
2022-08-19T01:45:24.155Z,70.83
2022-08-19T01:48:01.756Z,70.58
2022-08-19T01:50:31.818Z,70.64
2022-08-19T01:53:06.201Z,70.91
2022-08-19T01:55:40.609Z,70.45
2022-08-19T01:58:14.762Z,71.14
2022-08-19T02:00:42.358Z,71.42
2022-08-19T02:03:10.375Z,70.98
2022-08-19T02:05:37.765Z,71.58
2022-08-19T02:08:05.507Z,71.72
2022-08-19T02:10:33.145Z,71.85
2022-08-19T02:13:00.997Z,71.93
2022-08-19T02:15:28.889Z,71.85
2022-08-19T02:17:55.803Z,72.38
2022-08-19T02:20:23.490Z,72.26
2022-08-19T02:22:53.648Z,72.37
2022-08-19T02:25:23.582Z,72.40
2022-08-19T02:27:51.697Z,72.26
2022-08-19T02:30:19.984Z,71.92
2022-08-19T02:32:48.066Z,71.88
2022-08-19T02:35:15.246Z,72.27
2022-08-19T02:38:01.794Z,72.26
2022-08-19T02:40:35.603Z,71.97
2022-08-19T02:43:10.000Z,71.77
2022-08-19T02:45:41.460Z,72.19
2022-08-19T02:48:12.739Z,72.27
2022-08-19T02:50:56.457Z,72.14
2022-08-19T02:53:26.136Z,71.93
2022-08-19T02:55:53.445Z,72.22
2022-08-19T02:58:22.271Z,72.28
2022-08-19T03:00:52.444Z,72.12
2022-08-19T03:03:20.459Z,72.40
2022-08-19T03:05:56.315Z,72.11
2022-08-19T03:08:26.550Z,71.88
2022-08-19T03:10:54.284Z,71.78
2022-08-19T03:13:22.494Z,71.84
2022-08-19T03:15:49.596Z,71.69
2022-08-19T03:18:18.121Z,71.63
2022-08-19T03:20:48.108Z,71.89
2022-08-19T03:23:17.112Z,71.64
2022-08-19T03:25:47.598Z,71.75
2022-08-19T03:28:31.419Z,72.15
2022-08-19T03:31:05.635Z,72.12
2022-08-19T03:33:52.835Z,72.47
2022-08-19T03:36:25.690Z,72.31
2022-08-19T03:38:59.623Z,72.09
2022-08-19T03:41:34.382Z,72.38
2022-08-19T03:44:16.670Z,72.51
2022-08-19T03:46:46.759Z,72.50
2022-08-19T03:49:14.167Z,72.34
2022-08-19T03:51:42.790Z,72.02
2022-08-19T03:54:12.074Z,72.04
2022-08-19T03:56:40.527Z,72.05
2022-08-19T03:59:14.451Z,72.48
2022-08-19T04:01:43.163Z,72.71
2022-08-19T04:04:13.229Z,72.92
2022-08-19T04:06:40.637Z,73.13
2022-08-19T04:09:09.894Z,73.29
2022-08-19T04:11:44.271Z,73.19
2022-08-19T04:14:21.855Z,73.14
2022-08-19T04:16:50.114Z,72.67
2022-08-19T04:19:18.357Z,72.96
2022-08-19T04:21:48.192Z,73.04
2022-08-19T04:24:16.150Z,72.62
2022-08-19T04:26:43.658Z,72.73
2022-08-19T04:29:17.131Z,72.41
2022-08-19T04:31:46.147Z,72.62
2022-08-19T04:34:15.516Z,72.91
2022-08-19T04:36:45.599Z,72.81
2022-08-19T04:39:17.487Z,72.86
2022-08-19T04:42:05.033Z,72.67
2022-08-19T04:44:33.502Z,72.66
2022-08-19T04:47:10.955Z,72.28
2022-08-19T04:49:42.377Z,72.03
2022-08-19T04:52:10.530Z,71.93
2022-08-19T04:54:39.361Z,71.58
2022-08-19T04:57:11.310Z,71.58
2022-08-19T04:59:41.056Z,71.11
2022-08-19T05:02:09.895Z,71.23
2022-08-19T05:04:40.414Z,70.92
2022-08-19T05:07:09.228Z,70.77
2022-08-19T05:09:57.798Z,70.20
2022-08-19T05:12:26.755Z,70.03
2022-08-19T05:14:57.910Z,69.83
2022-08-19T05:17:28.960Z,69.63
2022-08-19T05:20:17.195Z,69.67
2022-08-19T05:22:47.235Z,69.42
2022-08-19T05:25:19.572Z,69.50
2022-08-19T05:27:47.136Z,69.19
2022-08-19T05:30:15.822Z,68.73
2022-08-19T05:32:44.184Z,68.69
2022-08-19T05:35:12.951Z,68.58
2022-08-19T05:37:44.835Z,68.56
2022-08-19T05:40:12.174Z,68.46
2022-08-19T05:42:39.449Z,68.24
2022-08-19T05:45:08.164Z,68.03
2022-08-19T05:47:36.171Z,67.60
2022-08-19T05:50:10.983Z,67.62
2022-08-19T05:52:39.215Z,66.78
2022-08-19T05:55:12.001Z,66.29
2022-08-19T05:57:39.377Z,65.89
2022-08-19T06:00:11.248Z,65.11
2022-08-19T06:02:39.034Z,63.95
2022-08-19T06:05:10.414Z,61.94
2022-08-19T06:07:39.235Z,60.88
2022-08-19T06:10:08.447Z,58.90
2022-08-19T06:12:36.618Z,56.69
2022-08-19T06:15:07.518Z,55.43
2022-08-19T06:17:36.355Z,53.51
2022-08-19T06:20:09.820Z,51.85
2022-08-19T06:22:41.740Z,51.70
2022-08-19T06:25:13.257Z,50.17
2022-08-19T06:30:31.363Z,48.87
2022-08-19T06:32:58.238Z,48.41
2022-08-19T06:35:25.496Z,46.42
2022-08-19T06:37:53.585Z,45.58
2022-08-19T06:40:21.621Z,44.65
2022-08-19T06:42:54.548Z,44.45
2022-08-19T06:45:24.946Z,44.31
2022-08-19T06:48:02.111Z,42.96
2022-08-19T06:50:31.097Z,42.18
2022-08-19T06:52:58.215Z,41.50
2022-08-19T06:55:33.455Z,40.04
2022-08-19T06:58:04.776Z,39.05
2022-08-19T07:03:03.046Z,37.83
2022-08-19T07:05:33.293Z,38.78
2022-08-19T07:08:04.809Z,39.72
2022-08-19T07:10:33.920Z,39.93
2022-08-19T07:13:01.274Z,40.77
2022-08-19T07:15:28.326Z,40.23
2022-08-19T07:17:58.395Z,39.82
2022-08-19T07:20:28.508Z,39.43
2022-08-19T07:22:56.094Z,39.60
2022-08-19T07:25:32.424Z,39.61
2022-08-19T07:28:01.420Z,40.04
2022-08-19T07:30:28.793Z,40.48
2022-08-19T07:32:58.396Z,41.09
2022-08-19T07:35:26.103Z,41.56
2022-08-19T07:37:56.224Z,42.32
2022-08-19T07:40:23.467Z,42.58
2022-08-19T07:42:50.444Z,42.87
2022-08-19T07:45:17.505Z,43.38
2022-08-19T07:47:50.423Z,43.38
2022-08-19T07:50:20.443Z,44.75
2022-08-19T07:52:49.136Z,44.91
2022-08-19T07:55:40.674Z,45.81
2022-08-19T07:58:09.868Z,44.98
2022-08-19T08:00:37.024Z,45.17
2022-08-19T08:03:05.711Z,45.54
2022-08-19T08:05:51.334Z,45.63
2022-08-19T08:08:36.826Z,47.18
2022-08-19T08:11:07.682Z,47.34
2022-08-19T08:13:39.078Z,47.08
2022-08-19T08:16:07.588Z,45.39
2022-08-19T08:18:43.147Z,44.79
2022-08-19T08:21:10.276Z,43.51
2022-08-19T08:23:37.198Z,41.79
2022-08-19T08:26:06.880Z,39.97
2022-08-19T08:28:40.356Z,39.86
2022-08-19T08:31:09.554Z,39.63
2022-08-19T08:33:37.096Z,38.46
2022-08-19T08:36:06.456Z,37.62
2022-08-19T08:38:38.927Z,37.66
2022-08-19T08:41:29.690Z,37.64
2022-08-19T08:43:58.518Z,38.56
2022-08-19T08:46:36.239Z,38.44
2022-08-19T08:49:09.748Z,37.63
2022-08-19T08:52:05.448Z,37.15
2022-08-19T08:54:54.728Z,37.58
2022-08-19T08:57:37.000Z,37.51
2022-08-19T09:00:20.931Z,35.72
2022-08-19T09:02:50.434Z,34.24
2022-08-19T09:05:22.233Z,33.17
2022-08-19T09:08:05.150Z,32.65
2022-08-19T09:10:44.833Z,31.85
2022-08-19T09:13:54.890Z,30.65
2022-08-19T09:16:28.025Z,29.40
2022-08-19T09:18:59.986Z,29.12
2022-08-19T09:21:33.170Z,30.27
2022-08-19T09:24:05.480Z,29.20
2022-08-19T09:26:47.208Z,29.23
2022-08-19T09:29:18.411Z,30.53
2022-08-19T09:31:48.976Z,31.50
2022-08-19T09:34:20.673Z,31.77
2022-08-19T09:36:56.862Z,31.24
2022-08-19T09:39:24.052Z,30.97
2022-08-19T09:41:51.327Z,30.73
2022-08-19T09:44:21.268Z,30.09
2022-08-19T09:46:49.346Z,29.29
2022-08-19T09:49:22.788Z,29.74
2022-08-19T09:51:56.305Z,30.37
2022-08-19T09:54:25.352Z,30.81
2022-08-19T09:56:59.882Z,30.15
2022-08-19T09:59:28.140Z,31.73
2022-08-19T10:01:55.506Z,32.49
2022-08-19T10:04:49.798Z,31.52
2022-08-19T10:07:17.599Z,32.16
2022-08-19T10:09:45.085Z,32.88
2022-08-19T10:12:17.816Z,33.58
2022-08-19T10:14:47.491Z,33.19
2022-08-19T10:17:17.655Z,32.06
2022-08-19T10:19:55.286Z,31.88
2022-08-19T10:22:25.499Z,32.34
2022-08-19T10:24:54.382Z,32.09
2022-08-19T10:27:22.367Z,32.60
2022-08-19T10:29:49.501Z,34.10
2022-08-19T10:32:17.397Z,33.85
2022-08-19T10:34:48.205Z,34.23
2022-08-19T10:37:23.638Z,34.49
2022-08-19T10:39:56.365Z,34.29
2022-08-19T10:42:23.508Z,34.65
2022-08-19T10:44:51.832Z,34.67
2022-08-19T10:47:25.488Z,33.85
2022-08-19T10:50:14.352Z,33.92
2022-08-19T10:52:50.613Z,34.24
2022-08-19T10:55:40.375Z,34.50
2022-08-19T10:58:13.431Z,35.04
2022-08-19T11:00:41.700Z,35.53
2022-08-19T11:03:09.507Z,37.32
2022-08-19T11:05:39.844Z,37.36
2022-08-19T11:08:23.303Z,38.00
2022-08-19T11:11:01.687Z,37.52
2022-08-19T11:13:30.449Z,37.07
2022-08-19T11:16:09.654Z,36.19
2022-08-19T11:18:40.328Z,36.92
2022-08-19T11:21:21.100Z,37.18
2022-08-19T11:23:50.368Z,37.25
2022-08-19T11:26:18.722Z,36.53
2022-08-19T11:28:46.218Z,36.46
2022-08-19T11:31:15.871Z,36.60
2022-08-19T11:33:47.648Z,36.97
2022-08-19T11:36:16.374Z,36.60
2022-08-19T11:38:45.037Z,35.92
2022-08-19T11:41:12.605Z,37.14
2022-08-19T11:43:40.814Z,36.53
2022-08-19T11:46:16.004Z,36.54
2022-08-19T11:48:44.387Z,36.26
2022-08-19T11:51:15.595Z,36.55
2022-08-19T11:53:42.993Z,36.58
2022-08-19T11:56:10.877Z,36.61
2022-08-19T11:58:38.743Z,36.36
2022-08-19T12:01:10.284Z,35.30
2022-08-19T12:03:39.423Z,35.45
2022-08-19T12:06:08.523Z,35.96
2022-08-19T12:08:37.061Z,35.51
2022-08-19T12:11:05.113Z,34.80
2022-08-19T12:13:33.338Z,35.53
2022-08-19T12:16:00.939Z,35.70
2022-08-19T12:18:28.356Z,36.72
2022-08-19T12:20:55.753Z,35.85
2022-08-19T12:23:24.107Z,36.70
2022-08-19T12:25:54.178Z,36.17
2022-08-19T12:28:22.658Z,35.76
2022-08-19T12:30:52.211Z,35.83
2022-08-19T12:33:25.137Z,35.21
2022-08-19T12:35:52.987Z,35.64
2022-08-19T12:38:21.051Z,35.48
2022-08-19T12:40:49.805Z,35.32
2022-08-19T12:43:17.184Z,35.28
2022-08-19T12:45:46.098Z,35.08
2022-08-19T12:48:33.544Z,34.11
2022-08-19T12:51:08.231Z,32.64
2022-08-19T12:53:39.168Z,32.94
2022-08-19T12:56:11.532Z,32.80
2022-08-19T12:58:49.104Z,33.73
2022-08-19T13:01:22.561Z,34.58
2022-08-19T13:03:54.814Z,35.36
2022-08-19T13:06:22.462Z,35.35
2022-08-19T13:08:49.721Z,35.52
2022-08-19T13:11:21.264Z,35.22
2022-08-19T13:13:51.297Z,34.83
2022-08-19T13:16:21.255Z,34.56
2022-08-19T13:18:49.097Z,34.12
2022-08-19T13:21:16.532Z,34.58
2022-08-19T13:23:43.764Z,34.10
2022-08-19T13:26:12.452Z,33.83
2022-08-19T13:28:59.204Z,34.29
2022-08-19T13:31:47.709Z,33.19
2022-08-19T13:34:16.611Z,33.31
2022-08-19T13:36:44.069Z,32.59
2022-08-19T13:39:13.749Z,32.99
2022-08-19T13:41:48.914Z,32.44
2022-08-19T13:44:19.258Z,32.44
2022-08-19T13:46:50.457Z,32.26
2022-08-19T13:49:21.622Z,33.02
2022-08-19T13:51:49.341Z,32.22
2022-08-19T13:54:17.649Z,32.06
2022-08-19T13:56:47.154Z,32.86
2022-08-19T13:59:14.448Z,31.77
2022-08-19T14:01:43.910Z,32.73
2022-08-19T14:04:11.204Z,33.08
2022-08-19T14:06:38.355Z,32.70
2022-08-19T14:09:06.791Z,32.33
2022-08-19T14:11:33.756Z,32.27
2022-08-19T14:14:00.846Z,32.50
2022-08-19T14:16:29.259Z,33.87
2022-08-19T14:18:57.419Z,32.81
2022-08-19T14:21:26.400Z,32.38
2022-08-19T14:23:55.414Z,33.71
2022-08-19T14:26:24.160Z,34.45
2022-08-19T14:28:53.939Z,33.92
2022-08-19T14:31:29.004Z,33.85
2022-08-19T14:33:57.871Z,33.68
2022-08-19T14:36:25.140Z,33.39
2022-08-19T14:38:52.437Z,32.79
2022-08-19T14:41:22.923Z,33.58
2022-08-19T14:43:52.955Z,34.15
2022-08-19T14:46:22.751Z,33.91
2022-08-19T14:48:51.788Z,33.25
2022-08-19T14:51:21.473Z,32.79
2022-08-19T14:53:53.342Z,32.90
2022-08-19T14:56:24.855Z,32.70
2022-08-19T14:58:53.231Z,31.23
2022-08-19T15:01:22.990Z,31.63
2022-08-19T15:03:57.317Z,32.10
2022-08-19T15:06:26.539Z,31.82
2022-08-19T15:08:55.255Z,31.28
2022-08-19T15:11:26.118Z,31.51
2022-08-19T15:13:54.114Z,31.53
2022-08-19T15:16:22.388Z,31.50
2022-08-19T15:18:55.534Z,31.63
2022-08-19T15:21:27.374Z,31.60
2022-08-19T15:23:57.343Z,31.81
2022-08-19T15:26:26.342Z,31.79
2022-08-19T15:28:53.721Z,31.60
2022-08-19T15:31:28.448Z,30.93
2022-08-19T15:33:59.840Z,31.86
2022-08-19T15:36:28.167Z,31.60
2022-08-19T15:38:58.238Z,31.65
2022-08-19T15:41:34.250Z,31.56
2022-08-19T15:44:10.353Z,31.85
2022-08-19T15:46:40.313Z,31.91
2022-08-19T15:49:08.404Z,31.89
2022-08-19T15:51:37.036Z,32.51
2022-08-19T15:54:07.056Z,32.40
2022-08-19T15:56:57.941Z,33.02
2022-08-19T15:59:47.052Z,33.42
2022-08-19T16:02:38.223Z,33.98
2022-08-19T16:05:28.838Z,34.82
2022-08-19T16:07:57.729Z,35.53
2022-08-19T16:10:30.044Z,35.59
2022-08-19T16:12:59.691Z,36.18
2022-08-19T16:15:32.811Z,35.70
2022-08-19T16:18:05.261Z,36.42
2022-08-19T16:20:37.011Z,36.26
2022-08-19T16:23:05.941Z,36.78
2022-08-19T16:25:37.535Z,37.05
2022-08-19T16:28:07.953Z,37.36
2022-08-19T16:30:39.420Z,37.51
2022-08-19T16:33:12.737Z,37.96
2022-08-19T16:35:58.442Z,38.28
2022-08-19T16:38:30.784Z,38.30
2022-08-19T16:41:02.000Z,38.45
2022-08-19T16:43:35.103Z,38.56
2022-08-19T16:46:03.568Z,39.34
2022-08-19T16:48:31.377Z,39.65
2022-08-19T16:51:02.999Z,39.62
2022-08-19T16:53:33.042Z,40.68
2022-08-19T16:56:01.849Z,39.97
2022-08-19T16:58:34.473Z,40.27
2022-08-19T17:01:06.248Z,40.48
2022-08-19T17:03:36.496Z,40.88
2022-08-19T17:06:17.837Z,41.55
2022-08-19T17:08:50.187Z,41.81
2022-08-19T17:11:19.464Z,41.65
2022-08-19T17:13:48.549Z,42.15
2022-08-19T17:16:24.961Z,42.19
2022-08-19T17:18:54.161Z,42.87
2022-08-19T17:21:28.546Z,43.11
2022-08-19T17:23:57.163Z,43.53
2022-08-19T17:26:25.589Z,43.56
2022-08-19T17:28:55.260Z,43.84
2022-08-19T17:31:25.506Z,44.80
2022-08-19T17:33:52.980Z,44.73
2022-08-19T17:36:25.215Z,45.31
2022-08-19T17:38:55.576Z,45.70
2022-08-19T17:41:25.045Z,46.09
2022-08-19T17:43:53.134Z,46.30
2022-08-19T17:46:20.849Z,46.28
2022-08-19T17:48:52.771Z,46.49
2022-08-19T17:51:27.512Z,46.64
2022-08-19T17:53:55.216Z,46.68
2022-08-19T17:56:23.659Z,46.95
2022-08-19T17:58:59.746Z,47.23
2022-08-19T18:01:35.504Z,47.15
2022-08-19T18:04:19.094Z,47.66
2022-08-19T18:06:53.261Z,47.91
2022-08-19T18:09:25.181Z,48.18
2022-08-19T18:11:55.670Z,48.22
2022-08-19T18:14:33.310Z,49.00
2022-08-19T18:17:14.307Z,48.71
2022-08-19T18:19:43.969Z,49.09
2022-08-19T18:22:37.049Z,49.90
2022-08-19T18:25:12.089Z,50.28
2022-08-19T18:27:39.677Z,50.16
2022-08-19T18:30:08.750Z,50.57
2022-08-19T18:32:45.680Z,50.57
2022-08-19T18:35:16.934Z,50.80
2022-08-19T18:37:49.775Z,51.30
2022-08-19T18:40:39.758Z,51.78
2022-08-19T18:43:26.031Z,52.41
2022-08-19T18:46:39.520Z,52.81
2022-08-19T18:49:11.225Z,52.90
2022-08-19T18:51:38.435Z,52.88
2022-08-19T18:54:05.529Z,52.89
2022-08-19T18:56:33.488Z,53.46
2022-08-19T18:59:01.069Z,53.22
2022-08-19T19:01:37.042Z,53.29
2022-08-19T19:04:10.657Z,53.34
2022-08-19T19:06:40.736Z,53.22
2022-08-19T19:09:13.819Z,53.90
2022-08-19T19:11:45.538Z,53.89
2022-08-19T19:14:32.729Z,53.92
2022-08-19T19:17:07.280Z,53.93
2022-08-19T19:19:34.942Z,54.09
2022-08-19T19:22:03.000Z,54.12
2022-08-19T19:24:33.479Z,54.67
2022-08-19T19:27:06.954Z,55.54
2022-08-19T19:29:37.543Z,56.00
2022-08-19T19:32:07.292Z,55.62
2022-08-19T19:34:35.150Z,56.37
2022-08-19T19:37:02.577Z,56.99
2022-08-19T19:39:44.837Z,57.14
2022-08-19T19:42:20.537Z,58.01
2022-08-19T19:44:50.483Z,59.79
2022-08-19T19:47:19.248Z,60.66
2022-08-19T19:50:13.360Z,60.88
2022-08-19T19:52:39.995Z,61.27
2022-08-19T19:55:09.506Z,61.20
2022-08-19T19:57:40.064Z,61.53
2022-08-19T20:00:08.899Z,61.75
2022-08-19T20:02:36.024Z,61.58
2022-08-19T20:05:03.677Z,61.20
2022-08-19T20:08:06.088Z,60.73
2022-08-19T20:10:33.463Z,61.16
2022-08-19T20:13:05.195Z,61.56
2022-08-19T20:15:32.594Z,62.01
2022-08-19T20:18:01.026Z,62.67
2022-08-19T20:20:28.276Z,62.70
2022-08-19T20:22:55.106Z,64.08
2022-08-19T20:25:22.360Z,64.09
2022-08-19T20:27:49.422Z,63.89
2022-08-19T20:30:19.419Z,64.31
2022-08-19T20:33:14.692Z,64.50
2022-08-19T20:35:43.121Z,64.09
2022-08-19T20:38:13.687Z,64.60
2022-08-19T20:40:41.209Z,65.15
2022-08-19T20:43:12.885Z,65.51
2022-08-19T20:45:41.009Z,65.06
2022-08-19T20:48:12.612Z,65.33
2022-08-19T20:50:40.958Z,65.76
2022-08-19T20:53:14.290Z,67.69
2022-08-19T20:55:44.687Z,67.83
2022-08-19T20:58:13.713Z,68.03
2022-08-19T21:00:42.292Z,68.35
2022-08-19T21:03:09.689Z,68.84
2022-08-19T21:05:37.666Z,69.49
2022-08-19T21:08:05.341Z,69.25
2022-08-19T21:10:32.920Z,69.34
2022-08-19T21:13:00.511Z,69.11
2022-08-19T21:15:28.269Z,69.18
2022-08-19T21:17:56.801Z,68.83
2022-08-19T21:20:25.079Z,68.62
2022-08-19T21:22:52.421Z,68.64
2022-08-19T21:25:19.652Z,68.36
2022-08-19T21:27:48.478Z,68.87
2022-08-19T21:30:15.849Z,68.86
2022-08-19T21:32:43.093Z,68.73
2022-08-19T21:35:10.874Z,68.60
2022-08-19T21:37:38.862Z,68.58
2022-08-19T21:40:07.367Z,68.60
2022-08-19T21:42:35.191Z,68.59
2022-08-19T21:45:03.333Z,68.25
2022-08-19T21:47:31.003Z,68.34
2022-08-19T21:49:58.906Z,68.43
2022-08-19T21:52:28.504Z,68.77
2022-08-19T21:54:56.300Z,68.22
2022-08-19T21:57:24.734Z,68.48
2022-08-19T21:59:53.995Z,67.89
2022-08-19T22:02:24.303Z,68.69
2022-08-19T22:04:52.999Z,68.19
2022-08-19T22:07:22.096Z,68.00
2022-08-19T22:16:25.789Z,68.03
2022-08-19T22:19:13.855Z,67.88
2022-08-19T22:22:01.444Z,68.15
2022-08-19T22:24:53.380Z,67.84
2022-08-19T22:27:40.964Z,67.88
2022-08-19T22:30:33.393Z,67.76
2022-08-19T22:33:22.471Z,68.07
2022-08-19T22:36:10.097Z,68.07
2022-08-19T22:38:58.675Z,68.03
2022-08-19T22:41:46.497Z,68.11
2022-08-19T22:44:34.434Z,68.21
2022-08-19T22:47:21.735Z,68.11
2022-08-19T22:50:13.900Z,68.49
2022-08-19T22:53:02.759Z,68.23
2022-08-19T22:55:49.943Z,68.22
2022-08-19T22:58:38.297Z,68.41
2022-08-19T23:01:30.237Z,68.43
2022-08-19T23:04:18.019Z,69.27
2022-08-19T23:07:06.435Z,69.20
2022-08-19T23:09:53.658Z,69.52
2022-08-19T23:12:45.080Z,69.66
2022-08-19T23:15:33.039Z,69.60
2022-08-19T23:18:23.306Z,69.86
2022-08-19T23:21:11.420Z,69.80
2022-08-19T23:23:58.743Z,69.69
2022-08-19T23:27:04.564Z,69.65
2022-08-19T23:30:10.300Z,69.85
2022-08-19T23:33:00.944Z,69.81
2022-08-19T23:35:48.747Z,70.15
2022-08-19T23:38:36.051Z,70.20
2022-08-19T23:41:23.640Z,70.00
2022-08-19T23:44:14.955Z,70.57
2022-08-19T23:47:04.804Z,70.28
2022-08-19T23:49:54.142Z,70.15
2022-08-19T23:52:50.784Z,70.08
2022-08-19T23:55:41.154Z,70.22
2022-08-19T23:58:30.294Z,70.28
